Time;durP1;ratioP1;P1;durP2;ratioP2;P2;SDS_P1;SDS_P2;PMS_P1;PMS_P2;Temp;Humidity;BMP_temperature;BMP_pressure;BME280_temperature;BME280_humidity;BME280_pressure;Samples;Min_cycle;Max_cycle;Signal;HPM_P1;HPM_P2
2022/01/26 00:06:06;;;;;;;15.05;10.95;;;;;;;;;;5043218;28;20082;-66
2022/01/26 00:08:32;;;;;;;14.00;9.38;;;;;;;;;;5049445;28;20403;-66
2022/01/26 00:10:59;;;;;;;14.70;10.05;;;;;;;;;;5049167;28;20463;-65
2022/01/26 00:13:25;;;;;;;16.85;10.50;;;;;;;;;;5048651;28;20039;-66
2022/01/26 00:15:52;;;;;;;17.42;10.15;;;;;;;;;;5049317;28;20037;-66
2022/01/26 00:18:20;;;;;;;16.35;9.50;;;;;;;;;;5048757;28;20033;-66
2022/01/26 00:20:54;;;;;;;18.55;10.95;;;;;;;;;;5048945;28;20027;-66
2022/01/26 00:23:47;;;;;;;15.60;10.07;;;;;;;;;;5048993;28;20032;-66
2022/01/26 00:27:03;;;;;;;14.80;10.88;;;;;;;;;;5048508;28;20075;-67
2022/01/26 00:29:10;;;;;;;14.00;9.20;;;;;;;;;;5039689;28;20419;-66
2022/01/26 00:39:55;;;;;;;22.55;10.77;;;;;;;;;;5049322;28;20032;-66
2022/01/26 00:42:22;;;;;;;16.50;10.27;;;;;;;;;;5048025;28;20047;-67
2022/01/26 00:44:50;;;;;;;25.13;9.82;;;;;;;;;;5046749;28;20029;-66
2022/01/26 00:47:17;;;;;;;21.27;12.23;;;;;;;;;;5040016;28;20053;-66
2022/01/26 00:49:43;;;;;;;28.88;11.45;;;;;;;;;;5046297;28;20044;-66
2022/01/26 00:52:14;;;;;;;21.25;11.00;;;;;;;;;;5040054;28;20029;-66
2022/01/26 00:54:40;;;;;;;23.75;10.93;;;;;;;;;;5041278;28;20028;-66
2022/01/26 00:57:06;;;;;;;22.60;12.50;;;;;;;;;;5038068;28;20025;-66
2022/01/26 00:59:32;;;;;;;20.63;11.07;;;;;;;;;;5040897;28;20083;-66
2022/01/26 01:01:58;;;;;;;21.80;11.45;;;;;;;;;;5040408;28;20021;-66
2022/01/26 01:04:24;;;;;;;19.30;10.75;;;;;;;;;;5042858;28;20382;-66
2022/01/26 01:06:57;;;;;;;27.02;12.38;;;;;;;;;;5037336;28;20029;-66
2022/01/26 01:09:24;;;;;;;20.77;11.35;;;;;;;;;;5041964;28;20039;-67
2022/01/26 01:11:55;;;;;;;22.60;10.60;;;;;;;;;;5038308;28;20021;-66
2022/01/26 01:14:22;;;;;;;19.85;11.43;;;;;;;;;;5043391;28;20364;-66
2022/01/26 01:16:48;;;;;;;18.10;10.15;;;;;;;;;;5039804;28;20021;-66
2022/01/26 01:19:32;;;;;;;17.50;10.18;;;;;;;;;;5039198;28;20542;-66
2022/01/26 01:22:27;;;;;;;14.65;10.30;;;;;;;;;;5039293;28;20049;-66
2022/01/26 01:30:11;;;;;;;18.58;11.35;;;;;;;;;;5046090;28;20041;-66
2022/01/26 01:32:51;;;;;;;15.43;9.82;;;;;;;;;;5037187;28;20101;-66
2022/01/26 01:35:18;;;;;;;19.83;11.70;;;;;;;;;;5039287;28;20025;-65
2022/01/26 01:37:44;;;;;;;19.40;10.93;;;;;;;;;;5040357;28;20017;-66
2022/01/26 01:40:12;;;;;;;27.15;11.90;;;;;;;;;;5040694;28;20091;-65
2022/01/26 01:42:38;;;;;;;15.80;9.55;;;;;;;;;;5039622;28;20484;-66
2022/01/26 01:45:04;;;;;;;18.92;11.52;;;;;;;;;;5042004;28;20025;-66
2022/01/26 01:47:30;;;;;;;19.65;10.18;;;;;;;;;;5041590;28;20087;-66
2022/01/26 01:49:56;;;;;;;14.63;9.82;;;;;;;;;;5039072;28;20414;-66
2022/01/26 01:52:23;;;;;;;16.77;9.48;;;;;;;;;;5042134;28;20132;-66
2022/01/26 01:54:53;;;;;;;18.70;10.18;;;;;;;;;;5041675;28;20455;-66
2022/01/26 01:57:24;;;;;;;17.90;10.63;;;;;;;;;;5046939;28;20027;-66
2022/01/26 01:59:50;;;;;;;16.35;10.35;;;;;;;;;;5044223;28;20071;-65
2022/01/26 02:02:16;;;;;;;18.27;10.82;;;;;;;;;;5044209;28;20555;-65
2022/01/26 02:04:44;;;;;;;17.30;10.88;;;;;;;;;;5039987;28;20112;-65
2022/01/26 02:07:11;;;;;;;19.83;11.75;;;;;;;;;;5044814;28;20025;-65
2022/01/26 02:09:37;;;;;;;15.52;10.85;;;;;;;;;;5042433;28;20105;-65
2022/01/26 02:12:26;;;;;;;17.10;10.60;;;;;;;;;;5045083;28;20032;-65
2022/01/26 02:15:03;;;;;;;17.00;10.40;;;;;;;;;;5051241;28;20025;-66
2022/01/26 02:17:55;;;;;;;15.88;11.10;;;;;;;;;;5050916;28;20060;-66
2022/01/26 02:20:41;;;;;;;14.90;9.65;;;;;;;;;;5031766;28;20784;-65
2022/01/26 02:53:49;;;;;;;14.45;9.30;;;;;;;;;;5049952;28;20052;-66
2022/01/26 03:01:52;;;;;;;16.00;10.18;;;;;;;;;;5049734;28;20040;-65
2022/01/26 03:04:28;;;;;;;13.45;9.35;;;;;;;;;;5048069;28;20116;-65
2022/01/26 03:07:02;;;;;;;18.92;9.30;;;;;;;;;;5049426;28;20033;-66
2022/01/26 03:09:34;;;;;;;13.05;8.85;;;;;;;;;;5049424;28;20039;-66
2022/01/26 03:12:02;;;;;;;15.38;9.30;;;;;;;;;;5049446;28;20752;-66
2022/01/26 03:14:47;;;;;;;17.65;10.27;;;;;;;;;;5048940;28;20051;-67
2022/01/26 03:17:31;;;;;;;17.88;9.27;;;;;;;;;;5029586;28;20445;-66
2022/01/26 03:20:03;;;;;;;18.98;10.25;;;;;;;;;;5047727;28;20064;-67
2022/01/26 03:33:45;;;;;;;18.00;9.43;;;;;;;;;;5049225;28;20726;-67
2022/01/26 03:36:11;;;;;;;14.38;9.23;;;;;;;;;;5035458;28;20443;-65
2022/01/26 03:38:47;;;;;;;16.00;8.80;;;;;;;;;;5048830;28;20033;-65
2022/01/26 03:43:48;;;;;;;17.40;10.32;;;;;;;;;;5048463;28;20033;-65
2022/01/26 03:46:14;;;;;;;14.73;9.30;;;;;;;;;;5031030;28;20460;-65
2022/01/26 03:48:40;;;;;;;14.57;9.48;;;;;;;;;;5048522;28;20029;-66
2022/01/26 03:51:06;;;;;;;16.92;9.80;;;;;;;;;;5047970;28;20495;-66
2022/01/26 03:53:33;;;;;;;27.83;10.48;;;;;;;;;;5048896;28;20427;-66
2022/01/26 03:55:59;;;;;;;15.32;9.07;;;;;;;;;;5048762;28;20052;-66
2022/01/26 03:58:25;;;;;;;17.67;9.90;;;;;;;;;;5048426;28;20032;-66
2022/01/26 04:00:51;;;;;;;16.42;9.90;;;;;;;;;;5048237;28;20033;-66
2022/01/26 04:03:17;;;;;;;16.30;9.85;;;;;;;;;;5029995;28;20056;-66
2022/01/26 04:05:44;;;;;;;17.25;10.30;;;;;;;;;;5043351;28;20820;-66
2022/01/26 04:08:16;;;;;;;17.05;9.43;;;;;;;;;;5048392;28;20460;-67
2022/01/26 04:11:34;;;;;;;15.00;9.77;;;;;;;;;;5048729;28;20024;-67
2022/01/26 04:13:29;;;;;;;15.57;10.32;;;;;;;;;;5034786;28;20072;-67
2022/01/26 04:15:55;;;;;;;14.25;8.93;;;;;;;;;;5047457;28;20067;-66
2022/01/26 04:18:28;;;;;;;14.52;9.77;;;;;;;;;;5048599;28;20075;-66
2022/01/26 04:20:57;;;;;;;18.63;9.90;;;;;;;;;;5048352;28;20025;-66
2022/01/26 04:24:00;;;;;;;16.52;9.57;;;;;;;;;;5048292;28;20856;-66
2022/01/26 04:26:19;;;;;;;13.30;9.30;;;;;;;;;;5043463;28;20063;-67
2022/01/26 04:28:52;;;;;;;15.18;8.93;;;;;;;;;;5047504;28;20095;-67
2022/01/26 04:31:20;;;;;;;17.10;9.50;;;;;;;;;;5047619;28;20078;-67
2022/01/26 04:33:46;;;;;;;18.02;10.02;;;;;;;;;;5047983;28;20174;-67
2022/01/26 04:36:18;;;;;;;15.57;10.40;;;;;;;;;;5047720;28;20016;-67
2022/01/26 04:38:50;;;;;;;15.50;9.63;;;;;;;;;;5048288;28;20029;-66
2022/01/26 04:43:52;;;;;;;15.82;9.02;;;;;;;;;;5045285;28;20076;-66
2022/01/26 04:46:18;;;;;;;15.55;9.07;;;;;;;;;;5047493;28;20491;-66
2022/01/26 04:48:44;;;;;;;20.00;10.10;;;;;;;;;;5047605;28;20108;-66
2022/01/26 04:51:10;;;;;;;14.32;10.25;;;;;;;;;;5048129;28;20404;-65
2022/01/26 04:53:36;;;;;;;31.45;11.43;;;;;;;;;;5047699;28;20427;-66
2022/01/26 04:56:02;;;;;;;26.30;11.95;;;;;;;;;;5041097;28;20079;-65
2022/01/26 04:58:28;;;;;;;28.23;14.02;;;;;;;;;;5047684;28;20075;-65
2022/01/26 05:00:54;;;;;;;42.90;21.52;;;;;;;;;;5045522;28;20122;-65
2022/01/26 05:03:20;;;;;;;36.22;21.10;;;;;;;;;;5044390;28;20044;-65
2022/01/26 05:05:46;;;;;;;39.45;23.25;;;;;;;;;;5041497;28;20029;-65
2022/01/26 05:08:12;;;;;;;42.03;22.88;;;;;;;;;;5045686;28;20394;-64
2022/01/26 05:10:42;;;;;;;40.90;22.27;;;;;;;;;;5039323;28;20531;-66
2022/01/26 05:13:10;;;;;;;37.63;23.15;;;;;;;;;;5046102;28;20021;-65
2022/01/26 05:15:36;;;;;;;38.25;23.88;;;;;;;;;;5048399;28;20037;-67
2022/01/26 05:18:04;;;;;;;44.58;26.95;;;;;;;;;;5047808;28;20044;-66
2022/01/26 05:20:32;;;;;;;42.65;27.77;;;;;;;;;;5048374;28;20104;-66
2022/01/26 05:22:58;;;;;;;43.15;26.02;;;;;;;;;;5047702;28;20459;-66
2022/01/26 05:25:24;;;;;;;41.65;26.88;;;;;;;;;;5047653;28;20025;-65
2022/01/26 05:27:50;;;;;;;42.88;28.15;;;;;;;;;;5048966;28;20108;-65
2022/01/26 05:30:16;;;;;;;45.67;28.90;;;;;;;;;;5051906;28;20179;-66
2022/01/26 05:32:42;;;;;;;44.08;27.85;;;;;;;;;;5052171;28;20013;-67
2022/01/26 05:35:09;;;;;;;45.70;29.38;;;;;;;;;;5051971;28;20023;-67
2022/01/26 05:37:35;;;;;;;43.60;28.55;;;;;;;;;;5051655;28;20064;-67
2022/01/26 05:40:03;;;;;;;43.08;27.45;;;;;;;;;;5041918;28;20112;-66
2022/01/26 05:42:29;;;;;;;42.42;27.98;;;;;;;;;;5047592;28;20079;-67
2022/01/26 05:45:01;;;;;;;45.90;28.63;;;;;;;;;;5044717;28;20044;-68
2022/01/26 05:47:28;;;;;;;46.03;28.75;;;;;;;;;;5048168;28;20132;-68
2022/01/26 05:49:54;;;;;;;48.30;30.60;;;;;;;;;;5050701;28;20033;-67
2022/01/26 05:52:20;;;;;;;45.03;29.40;;;;;;;;;;5051093;28;20480;-67
2022/01/26 05:54:46;;;;;;;47.97;29.83;;;;;;;;;;5033227;28;20797;-67
2022/01/26 05:57:12;;;;;;;50.67;31.10;;;;;;;;;;5050869;28;20128;-66
2022/01/26 05:59:38;;;;;;;50.65;32.05;;;;;;;;;;5050641;28;20029;-65
2022/01/26 06:02:04;;;;;;;46.03;30.70;;;;;;;;;;5051557;28;20727;-65
2022/01/26 06:04:30;;;;;;;49.08;31.52;;;;;;;;;;5050715;28;20882;-64
2022/01/26 06:06:57;;;;;;;47.63;30.50;;;;;;;;;;5050908;28;20032;-65
2022/01/26 06:09:24;;;;;;;49.05;31.58;;;;;;;;;;5050721;28;20083;-65
2022/01/26 06:11:50;;;;;;;48.35;31.63;;;;;;;;;;5051746;28;20621;-65
2022/01/26 06:14:16;;;;;;;49.35;31.17;;;;;;;;;;5050567;28;20057;-65
2022/01/26 06:16:42;;;;;;;54.15;33.90;;;;;;;;;;5050785;28;20036;-65
2022/01/26 06:19:08;;;;;;;52.35;33.80;;;;;;;;;;5049998;28;20120;-65
2022/01/26 06:21:34;;;;;;;50.33;32.38;;;;;;;;;;5050616;28;20031;-65
2022/01/26 06:24:00;;;;;;;49.47;31.13;;;;;;;;;;5050572;28;20079;-66
2022/01/26 06:26:26;;;;;;;51.95;33.25;;;;;;;;;;5046187;28;20029;-65
2022/01/26 06:28:52;;;;;;;52.33;33.15;;;;;;;;;;5030099;28;20391;-65
2022/01/26 06:31:19;;;;;;;52.78;34.05;;;;;;;;;;5048892;28;20492;-65
2022/01/26 06:33:47;;;;;;;52.83;32.92;;;;;;;;;;5050731;28;20116;-65
2022/01/26 06:36:14;;;;;;;50.13;33.00;;;;;;;;;;5049868;28;20624;-66
2022/01/26 06:38:41;;;;;;;51.90;32.90;;;;;;;;;;5050269;28;20921;-66
2022/01/26 06:41:07;;;;;;;50.00;31.85;;;;;;;;;;5049755;28;20021;-66
2022/01/26 06:43:33;;;;;;;53.35;34.53;;;;;;;;;;5050510;28;20025;-64
2022/01/26 06:46:06;;;;;;;53.92;34.05;;;;;;;;;;5049516;28;20049;-66
2022/01/26 06:48:57;;;;;;;51.90;33.35;;;;;;;;;;5050078;28;20033;-66
2022/01/26 06:51:23;;;;;;;52.53;34.78;;;;;;;;;;5049638;28;20024;-66
2022/01/26 06:53:49;;;;;;;51.53;32.88;;;;;;;;;;5049842;28;20044;-66
2022/01/26 06:56:15;;;;;;;53.58;34.53;;;;;;;;;;5049741;28;20056;-67
2022/01/26 06:58:41;;;;;;;52.03;33.80;;;;;;;;;;5049962;28;20057;-65
2022/01/26 07:01:07;;;;;;;51.53;33.60;;;;;;;;;;5049194;28;20639;-65
2022/01/26 07:03:33;;;;;;;54.78;34.78;;;;;;;;;;5031814;28;20116;-64
2022/01/26 07:05:59;;;;;;;56.45;34.70;;;;;;;;;;5049560;28;20439;-64
2022/01/26 07:08:25;;;;;;;51.30;33.10;;;;;;;;;;5049303;28;20021;-63
2022/01/26 07:10:53;;;;;;;50.25;33.65;;;;;;;;;;5052198;28;20172;-65
2022/01/26 07:13:19;;;;;;;53.15;34.67;;;;;;;;;;5047593;28;20032;-66
2022/01/26 07:21:27;;;;;;;58.80;36.92;;;;;;;;;;5040065;28;20122;-65
2022/01/26 07:23:55;;;;;;;58.50;35.08;;;;;;;;;;5050214;28;20032;-65
2022/01/26 07:26:21;;;;;;;58.55;36.22;;;;;;;;;;5048557;28;20119;-65
2022/01/26 07:28:47;;;;;;;59.17;38.08;;;;;;;;;;5045745;28;20025;-65
2022/01/26 07:31:13;;;;;;;65.00;37.22;;;;;;;;;;5038611;28;20029;-66
2022/01/26 07:33:41;;;;;;;56.05;35.13;;;;;;;;;;5044571;28;20075;-65
2022/01/26 07:36:07;;;;;;;60.75;37.38;;;;;;;;;;5037755;28;20053;-65
2022/01/26 07:38:34;;;;;;;56.08;36.25;;;;;;;;;;5043257;28;20842;-64
2022/01/26 07:41:00;;;;;;;60.90;38.17;;;;;;;;;;5043282;28;20515;-65
2022/01/26 07:43:26;;;;;;;61.15;35.42;;;;;;;;;;5046919;28;20140;-65
2022/01/26 07:45:52;;;;;;;67.15;39.42;;;;;;;;;;5040142;28;20079;-66
2022/01/26 07:48:18;;;;;;;69.57;38.47;;;;;;;;;;5044003;28;20079;-65
2022/01/26 07:50:45;;;;;;;61.03;36.78;;;;;;;;;;5047916;28;20552;-65
2022/01/26 07:53:15;;;;;;;61.47;37.30;;;;;;;;;;5048047;28;20036;-65
2022/01/26 07:55:41;;;;;;;68.05;38.50;;;;;;;;;;5049769;28;20469;-65
2022/01/26 07:58:09;;;;;;;59.67;35.63;;;;;;;;;;5049190;28;20021;-65
2022/01/26 08:00:35;;;;;;;65.05;38.25;;;;;;;;;;5049359;28;20028;-65
2022/01/26 08:03:01;;;;;;;64.72;39.35;;;;;;;;;;5048939;28;20040;-65
2022/01/26 08:05:28;;;;;;;63.60;40.15;;;;;;;;;;5049564;28;20021;-66
2022/01/26 08:07:54;;;;;;;64.30;37.85;;;;;;;;;;5049402;28;20082;-65
2022/01/26 08:10:20;;;;;;;66.47;38.28;;;;;;;;;;5048339;28;20136;-65
2022/01/26 08:12:48;;;;;;;74.80;39.42;;;;;;;;;;5046182;28;20025;-65
2022/01/26 08:15:14;;;;;;;69.85;40.85;;;;;;;;;;5040546;28;20144;-66
2022/01/26 08:17:40;;;;;;;75.78;42.13;;;;;;;;;;5038880;28;20111;-65
2022/01/26 08:20:08;;;;;;;67.53;39.95;;;;;;;;;;5042832;28;20025;-64
2022/01/26 08:22:35;;;;;;;71.65;41.28;;;;;;;;;;5050133;28;20041;-65
2022/01/26 08:25:01;;;;;;;71.82;41.25;;;;;;;;;;5050141;28;20383;-65
2022/01/26 08:27:32;;;;;;;73.50;42.10;;;;;;;;;;5047055;28;20115;-64
2022/01/26 08:30:06;;;;;;;75.28;42.80;;;;;;;;;;5044719;28;20072;-65
2022/01/26 08:32:32;;;;;;;76.28;43.70;;;;;;;;;;5026669;28;20046;-65
2022/01/26 08:34:58;;;;;;;75.15;42.05;;;;;;;;;;5039874;28;20844;-64
2022/01/26 08:37:24;;;;;;;67.47;40.83;;;;;;;;;;5036233;28;20509;-65
2022/01/26 08:39:50;;;;;;;74.75;42.38;;;;;;;;;;5038756;28;20052;-64
2022/01/26 08:42:16;;;;;;;70.07;43.10;;;;;;;;;;5047140;28;20087;-65
2022/01/26 08:44:42;;;;;;;71.20;41.45;;;;;;;;;;5048422;28;20138;-65
2022/01/26 08:47:08;;;;;;;75.38;43.35;;;;;;;;;;5048002;28;20132;-65
2022/01/26 08:49:34;;;;;;;75.97;45.00;;;;;;;;;;5047534;28;20025;-65
2022/01/26 08:52:00;;;;;;;72.53;42.03;;;;;;;;;;5047297;28;20035;-65
2022/01/26 08:54:26;;;;;;;72.78;43.35;;;;;;;;;;5047734;28;20115;-66
2022/01/26 08:56:53;;;;;;;71.93;43.00;;;;;;;;;;5048114;28;20488;-66
2022/01/26 08:59:20;;;;;;;73.57;42.60;;;;;;;;;;5047486;28;20021;-64
2022/01/26 09:01:46;;;;;;;74.90;42.47;;;;;;;;;;5045958;28;20020;-66
2022/01/26 09:04:13;;;;;;;73.18;41.63;;;;;;;;;;5046700;28;20021;-64
2022/01/26 09:06:39;;;;;;;73.70;41.80;;;;;;;;;;5046971;28;20688;-66
2022/01/26 09:09:08;;;;;;;69.78;41.60;;;;;;;;;;5046358;28;20584;-64
2022/01/26 09:11:37;;;;;;;71.28;41.90;;;;;;;;;;5047209;28;20498;-66
2022/01/26 09:14:08;;;;;;;72.85;41.75;;;;;;;;;;5047235;28;20029;-65
2022/01/26 09:16:35;;;;;;;68.90;42.35;;;;;;;;;;5048029;28;20029;-65
2022/01/26 09:19:08;;;;;;;71.75;43.38;;;;;;;;;;5047970;28;20060;-65
2022/01/26 09:21:35;;;;;;;70.40;40.25;;;;;;;;;;5047680;28;20383;-65
2022/01/26 09:24:01;;;;;;;66.72;39.22;;;;;;;;;;5048171;28;20029;-67
2022/01/26 09:26:27;;;;;;;68.57;39.45;;;;;;;;;;5047611;28;20550;-65
2022/01/26 09:28:53;;;;;;;69.72;39.63;;;;;;;;;;5048110;28;20399;-63
2022/01/26 09:31:19;;;;;;;67.82;40.47;;;;;;;;;;5047827;28;20021;-64
2022/01/26 09:33:45;;;;;;;71.28;40.75;;;;;;;;;;5047884;28;20036;-64
2022/01/26 09:36:11;;;;;;;69.15;38.20;;;;;;;;;;5045000;28;20037;-65
2022/01/26 09:38:39;;;;;;;67.95;37.70;;;;;;;;;;5038491;28;20055;-65
2022/01/26 09:41:05;;;;;;;69.05;41.40;;;;;;;;;;5047901;28;20830;-66
2022/01/26 09:43:32;;;;;;;67.82;41.08;;;;;;;;;;5044953;28;20037;-65
2022/01/26 09:45:58;;;;;;;67.82;39.63;;;;;;;;;;5025553;28;20045;-65
2022/01/26 09:48:24;;;;;;;63.40;39.45;;;;;;;;;;5027668;28;20478;-66
2022/01/26 09:50:55;;;;;;;66.63;40.22;;;;;;;;;;5027904;28;20538;-65
2022/01/26 09:53:26;;;;;;;67.10;40.33;;;;;;;;;;5026639;28;20049;-65
2022/01/26 09:55:54;;;;;;;64.63;38.67;;;;;;;;;;5027942;28;20033;-65
2022/01/26 09:58:20;;;;;;;63.25;37.92;;;;;;;;;;5023139;28;20763;-65
2022/01/26 10:00:47;;;;;;;67.13;40.08;;;;;;;;;;5025901;28;20107;-65
2022/01/26 10:03:14;;;;;;;64.90;39.20;;;;;;;;;;5026772;28;20053;-65
2022/01/26 10:05:42;;;;;;;60.67;36.40;;;;;;;;;;5008582;28;20022;-65
2022/01/26 10:19:06;;;;;;;60.80;35.13;;;;;;;;;;5031270;28;20037;-64
2022/01/26 10:21:32;;;;;;;62.03;37.13;;;;;;;;;;5030439;28;20507;-64
2022/01/26 10:24:08;;;;;;;61.17;35.83;;;;;;;;;;5030916;28;20120;-64
2022/01/26 10:26:34;;;;;;;58.13;35.65;;;;;;;;;;5031141;28;20113;-65
2022/01/26 10:29:03;;;;;;;61.83;37.25;;;;;;;;;;5031123;28;20033;-64
2022/01/26 10:31:30;;;;;;;58.85;35.65;;;;;;;;;;5011298;28;20057;-64
2022/01/26 10:33:57;;;;;;;58.67;35.33;;;;;;;;;;5024935;28;20116;-63
2022/01/26 10:36:24;;;;;;;59.35;35.50;;;;;;;;;;5027098;28;20488;-64
2022/01/26 10:38:57;;;;;;;61.53;35.38;;;;;;;;;;5030865;28;20112;-66
2022/01/26 10:41:23;;;;;;;57.88;35.10;;;;;;;;;;5030549;28;20052;-65
2022/01/26 10:43:51;;;;;;;55.45;33.35;;;;;;;;;;5030739;28;20636;-65
2022/01/26 10:46:28;;;;;;;55.78;34.78;;;;;;;;;;5040223;28;20049;-65
2022/01/26 10:49:06;;;;;;;54.67;33.83;;;;;;;;;;5050069;28;20021;-67
2022/01/26 10:54:36;;;;;;;56.67;34.22;;;;;;;;;;5048958;28;20029;-65
2022/01/26 10:57:04;;;;;;;53.60;34.20;;;;;;;;;;5050783;28;20017;-63
2022/01/26 10:59:30;;;;;;;54.63;32.25;;;;;;;;;;5045993;28;20048;-65
2022/01/26 11:01:59;;;;;;;54.53;32.92;;;;;;;;;;5050124;28;20118;-65
2022/01/26 11:04:26;;;;;;;51.45;31.55;;;;;;;;;;5050404;28;20025;-65
2022/01/26 11:06:53;;;;;;;49.78;30.88;;;;;;;;;;5050733;28;20099;-64
2022/01/26 11:09:21;;;;;;;53.03;32.15;;;;;;;;;;5049332;28;20040;-64
2022/01/26 11:11:47;;;;;;;47.97;30.35;;;;;;;;;;5050076;28;20483;-67
2022/01/26 11:14:21;;;;;;;49.10;30.02;;;;;;;;;;5050147;28;20131;-64
2022/01/26 11:16:53;;;;;;;49.38;30.88;;;;;;;;;;5049962;28;20048;-64
2022/01/26 11:19:19;;;;;;;50.03;30.10;;;;;;;;;;5049196;28;20028;-64
2022/01/26 11:21:45;;;;;;;51.53;30.73;;;;;;;;;;5049402;28;20071;-64
2022/01/26 11:24:20;;;;;;;47.58;28.60;;;;;;;;;;5048881;28;20100;-65
2022/01/26 11:26:48;;;;;;;42.20;27.20;;;;;;;;;;5047942;28;20032;-65
2022/01/26 11:29:21;;;;;;;45.40;28.48;;;;;;;;;;5048597;28;20491;-65
2022/01/26 11:31:47;;;;;;;51.63;28.98;;;;;;;;;;5048400;28;20099;-65
2022/01/26 11:34:16;;;;;;;46.75;28.30;;;;;;;;;;5050248;28;20121;-65
2022/01/26 11:36:42;;;;;;;46.40;28.60;;;;;;;;;;5049552;28;20104;-65
2022/01/26 11:42:29;;;;;;;46.67;27.38;;;;;;;;;;5045578;28;20102;-65
2022/01/26 11:45:15;;;;;;;46.83;27.67;;;;;;;;;;5049280;28;20074;-65
2022/01/26 11:47:42;;;;;;;45.42;27.50;;;;;;;;;;5049493;28;20040;-65
2022/01/26 11:50:19;;;;;;;42.17;24.95;;;;;;;;;;5048949;28;20415;-66
2022/01/26 11:52:47;;;;;;;43.17;26.40;;;;;;;;;;5046523;28;20396;-64
2022/01/26 11:55:23;;;;;;;39.53;24.95;;;;;;;;;;5051953;28;20148;-65
2022/01/26 11:57:52;;;;;;;41.30;24.05;;;;;;;;;;5045043;28;20080;-64
2022/01/26 12:00:37;;;;;;;45.28;25.95;;;;;;;;;;5045675;28;20400;-64
2022/01/26 12:03:08;;;;;;;43.00;24.90;;;;;;;;;;5046587;28;20017;-65
2022/01/26 12:05:43;;;;;;;39.60;24.35;;;;;;;;;;5051485;28;20017;-65
2022/01/26 12:08:09;;;;;;;41.70;25.17;;;;;;;;;;5040860;28;20036;-65
2022/01/26 12:10:36;;;;;;;38.83;23.45;;;;;;;;;;5020408;28;20539;-65
2022/01/26 12:13:10;;;;;;;37.88;22.48;;;;;;;;;;5044844;28;20486;-65
2022/01/26 12:15:54;;;;;;;35.67;24.08;;;;;;;;;;5043691;28;20410;-64
2022/01/26 12:18:30;;;;;;;38.25;22.00;;;;;;;;;;5064903;28;20363;-64
2022/01/26 12:32:10;;;;;;;35.28;22.42;;;;;;;;;;5048366;28;20036;-65
2022/01/26 12:37:41;;;;;;;39.65;22.63;;;;;;;;;;5042085;28;20036;-64
2022/01/26 12:45:17;;;;;;;37.22;21.90;;;;;;;;;;5050902;28;20120;-65
2022/01/26 12:47:43;;;;;;;36.90;20.77;;;;;;;;;;5047735;28;20039;-64
2022/01/26 12:50:09;;;;;;;34.78;20.67;;;;;;;;;;5048023;28;20029;-65
2022/01/26 12:52:36;;;;;;;33.03;20.77;;;;;;;;;;5048612;28;20132;-64
2022/01/26 12:55:04;;;;;;;34.50;21.95;;;;;;;;;;5048254;28;20071;-64
2022/01/26 12:57:30;;;;;;;36.42;21.48;;;;;;;;;;5048119;28;20035;-64
2022/01/26 13:00:04;;;;;;;38.13;21.27;;;;;;;;;;5048405;28;20024;-64
2022/01/26 13:02:31;;;;;;;34.13;20.92;;;;;;;;;;5047202;28;20498;-65
2022/01/26 13:05:00;;;;;;;33.65;20.50;;;;;;;;;;5048066;28;20029;-65
2022/01/26 13:07:26;;;;;;;35.30;20.97;;;;;;;;;;5047673;28;20119;-65
2022/01/26 13:09:52;;;;;;;33.08;21.50;;;;;;;;;;5047973;28;20295;-65
2022/01/26 13:12:28;;;;;;;35.08;20.15;;;;;;;;;;5048315;28;20045;-65
2022/01/26 13:15:07;;;;;;;33.33;19.92;;;;;;;;;;5047854;28;20514;-65
2022/01/26 13:17:40;;;;;;;35.92;21.10;;;;;;;;;;5047365;28;20021;-66
2022/01/26 13:22:55;;;;;;;35.03;22.20;;;;;;;;;;5048265;28;20029;-65
2022/01/26 13:25:51;;;;;;;29.77;18.73;;;;;;;;;;5047839;28;20534;-65
2022/01/26 13:32:05;;;;;;;35.40;20.45;;;;;;;;;;5022690;28;20564;-65
2022/01/26 13:39:33;;;;;;;37.90;21.67;;;;;;;;;;5053544;28;20029;-65
2022/01/26 13:45:03;;;;;;;31.05;19.33;;;;;;;;;;5047878;28;20040;-65
2022/01/26 13:50:04;;;;;;;31.70;19.55;;;;;;;;;;5050340;28;20052;-65
2022/01/26 13:52:39;;;;;;;33.13;20.08;;;;;;;;;;5051680;28;20075;-64
2022/01/26 13:55:29;;;;;;;32.45;19.85;;;;;;;;;;5051342;28;20068;-65
2022/01/26 14:00:23;;;;;;;33.85;19.52;;;;;;;;;;5051233;28;20037;-66
2022/01/26 14:02:53;;;;;;;34.38;18.58;;;;;;;;;;5051281;28;20066;-65
2022/01/26 14:05:19;;;;;;;;;;;;;;;;;;5033617;28;20029;-66
2022/01/26 14:07:45;;;;;;;32.95;19.02;;;;;;;;;;5051199;28;20401;-65
2022/01/26 14:10:11;;;;;;;32.70;19.02;;;;;;;;;;5051127;28;20869;-65
2022/01/26 14:12:41;;;;;;;30.50;18.98;;;;;;;;;;5051522;28;20565;-65
2022/01/26 14:15:09;;;;;;;;;;;;;;;;;;5051184;28;20033;-65
2022/01/26 14:17:53;;;;;;;28.05;18.05;;;;;;;;;;5051437;28;20012;-65
2022/01/26 14:25:42;;;;;;;34.47;18.92;;;;;;;;;;5044231;28;20029;-65
2022/01/26 14:28:10;;;;;;;29.00;18.23;;;;;;;;;;5050994;28;20063;-66
2022/01/26 14:33:15;;;;;;;27.02;17.35;;;;;;;;;;5050106;28;20439;-66
2022/01/26 14:36:18;;;;;;;29.15;16.40;;;;;;;;;;5050259;28;20542;-65
2022/01/26 14:52:37;;;;;;;30.33;18.02;;;;;;;;;;5050565;28;20549;-65
2022/01/26 15:00:15;;;;;;;27.88;17.60;;;;;;;;;;5049524;28;20455;-65
2022/01/26 15:22:52;;;;;;;30.67;17.50;;;;;;;;;;5050099;28;20033;-66
2022/01/26 15:30:27;;;;;;;27.23;16.40;;;;;;;;;;5049745;28;20056;-65
2022/01/26 15:33:22;;;;;;;28.77;17.38;;;;;;;;;;5049553;28;20024;-65
2022/01/26 15:40:01;;;;;;;27.95;16.08;;;;;;;;;;5049603;28;20173;-65
2022/01/26 15:57:46;;;;;;;28.10;15.00;;;;;;;;;;5048124;28;20035;-65
2022/01/26 16:16:54;;;;;;;28.08;14.93;;;;;;;;;;5048679;28;20118;-64
2022/01/26 18:15:38;;;;;;;32.15;19.63;;;;;;;;;;5049595;28;20037;-67
2022/01/26 18:50:04;;;;;;;34.55;21.33;;;;;;;;;;5050525;28;20447;-67
2022/01/26 18:52:32;;;;;;;34.97;22.77;;;;;;;;;;5050318;28;20028;-66
2022/01/26 18:54:58;;;;;;;34.28;22.80;;;;;;;;;;5050389;28;20432;-66
2022/01/26 18:57:24;;;;;;;35.30;22.25;;;;;;;;;;5050539;28;20534;-66
2022/01/26 18:59:51;;;;;;;34.10;22.42;;;;;;;;;;5050024;28;20142;-67
2022/01/26 19:02:17;;;;;;;36.40;22.70;;;;;;;;;;5049633;28;20036;-66
2022/01/26 19:04:48;;;;;;;37.83;23.52;;;;;;;;;;5053372;28;20025;-68
2022/01/26 19:07:15;;;;;;;35.97;22.67;;;;;;;;;;5058704;28;20068;-66
2022/01/26 19:09:46;;;;;;;33.63;22.73;;;;;;;;;;5051260;28;20059;-66
2022/01/26 19:12:14;;;;;;;;;;;;;;;;;;5049940;28;20120;-66
2022/01/26 19:14:45;;;;;;;40.97;21.60;;;;;;;;;;5049815;28;20282;-66
2022/01/26 19:17:21;;;;;;;35.65;23.00;;;;;;;;;;5048935;28;20450;-67
2022/01/26 19:20:18;;;;;;;35.97;22.80;;;;;;;;;;5051662;28;20110;-66
2022/01/26 19:22:59;;;;;;;32.65;21.65;;;;;;;;;;5048147;28;20452;-67
2022/01/26 19:25:32;;;;;;;34.83;22.75;;;;;;;;;;5057721;28;20029;-66
2022/01/26 19:28:23;;;;;;;37.40;24.23;;;;;;;;;;5049550;28;20083;-66
2022/01/26 19:31:54;;;;;;;34.70;23.17;;;;;;;;;;5050946;28;20458;-66
2022/01/26 19:52:17;;;;;;;36.92;23.63;;;;;;;;;;5048260;28;20044;-68
2022/01/26 19:54:46;;;;;;;36.72;21.75;;;;;;;;;;5049680;28;20025;-68
2022/01/26 19:57:12;;;;;;;34.88;23.08;;;;;;;;;;5038732;28;20024;-68
2022/01/26 19:59:38;;;;;;;39.58;24.27;;;;;;;;;;5049276;28;20036;-65
2022/01/26 20:02:04;;;;;;;37.53;24.08;;;;;;;;;;5049212;28;20051;-66
2022/01/26 20:04:32;;;;;;;37.00;24.38;;;;;;;;;;5049085;28;20625;-66
2022/01/26 20:07:04;;;;;;;39.13;24.42;;;;;;;;;;5048967;28;20483;-66
2022/01/26 20:09:41;;;;;;;37.63;22.83;;;;;;;;;;5020326;28;20075;-66
2022/01/26 20:12:15;;;;;;;37.80;25.35;;;;;;;;;;5030769;28;20064;-66
2022/01/26 20:14:42;;;;;;;35.28;22.95;;;;;;;;;;5038738;28;20027;-67
2022/01/26 20:17:08;;;;;;;37.08;23.42;;;;;;;;;;5049278;28;20116;-66
2022/01/26 20:19:35;;;;;;;38.78;24.10;;;;;;;;;;5048933;28;20029;-66
2022/01/26 20:22:02;;;;;;;35.90;23.65;;;;;;;;;;5049075;28;20207;-66
2022/01/26 20:24:28;;;;;;;40.55;23.35;;;;;;;;;;5048452;28;20035;-66
2022/01/26 20:26:55;;;;;;;36.75;23.15;;;;;;;;;;5049020;28;20029;-66
2022/01/26 20:29:26;;;;;;;35.60;22.90;;;;;;;;;;5048339;28;20045;-66
2022/01/26 20:31:52;;;;;;;37.67;23.88;;;;;;;;;;5048879;28;20029;-65
2022/01/26 20:34:18;;;;;;;38.05;24.05;;;;;;;;;;5048155;28;20025;-66
2022/01/26 20:36:45;;;;;;;37.13;22.60;;;;;;;;;;5049144;28;20390;-66
2022/01/26 20:39:11;;;;;;;36.60;23.10;;;;;;;;;;5048777;28;20177;-66
2022/01/26 20:41:38;;;;;;;32.72;22.40;;;;;;;;;;5048450;28;20036;-65
2022/01/26 20:44:04;;;;;;;32.88;20.70;;;;;;;;;;5048109;28;20108;-66
2022/01/26 20:46:30;;;;;;;35.55;22.20;;;;;;;;;;5048325;28;20041;-66
2022/01/26 20:48:56;;;;;;;38.40;23.35;;;;;;;;;;5048359;28;20025;-66
2022/01/26 20:51:23;;;;;;;39.25;23.67;;;;;;;;;;5048844;28;20487;-66
2022/01/26 20:53:49;;;;;;;38.03;22.67;;;;;;;;;;5047965;28;20506;-66
2022/01/26 20:56:16;;;;;;;35.40;21.35;;;;;;;;;;5048120;28;20104;-66
2022/01/26 20:58:45;;;;;;;36.72;22.58;;;;;;;;;;5046923;28;20538;-66